首页
METAR-TAF:

METAR-TAF

机场 :

Wellsville Municipal Airport (Tarantine Field)

Wellsville, 紐約州, 美国

纬度: 42-06-27N, 经度: 077-59-04W, 海拔: 647米

当前天气观测

该预报发布于31分钟前的16:56 UTC
风速13节,风向西,有时为18节阵风
温度 6°C
湿度 81%
气压 1011 hPa
能見度: 16.1公里
少量云层高于2200英尺
多云层高于4700英尺
阴天层高于5500英尺

METAR: KELZ 301656Z AUTO 27013G18KT 10SM FEW022 BKN047 OVC055 06/03 A2986 RMK AO2 RAB1559E47 SLP120 P0000 T00560033

时间: 13:27 (17:27 UTC)


TAF: 丢失

超过4000个机场的气象观测和天气预报(METAR&TAF报告)。

可查询的气象台以黄色和红色小点在地图上表示。

将鼠标移到小点上方,可查看气象台名称。

然后点击查看天气观测和预报。

如需切换地图:点击带黑十字的绿色按钮放大地图;点击带横线的绿色按钮缩小地图;或者点击绿色箭头查看邻近地区的地图。


METAR-TAF: